»·PEaware :: FDX1016 KSEA-KLAX

FDX1016 :: KSEA-KLAX

FLIGHT INFORMATION

Flight Status: Arrived
Operator:
Federal Express
More flights by this operator :: More flights under this callsign
Pilot: Adam H. (32152)
Aircraft: AIRBUS A300B4-600
(A306)
More flights by this aircraft type
Origin: KSEA Seattle-Tacoma Intl
United States
Destination: KLAX Los Angeles Intl
United States
More flights between these airports :: More routes between these airports
Route: +SUMMA2 SUMMA JINMO Q7 JAGWA BURGL IRNMN2
File this flight plan on PilotEdge
Remarks: RMK / SIMBRIEF
Altitude:
(Current/Filed)
35,000ft
Speed:
(Current/Filed)
450kts
Departed: 03-Nov-20 06:00 PM
Arrived: 03-Nov-20 08:06 PM
Distance/Time
Traveled:
830nm/2:06
Distance/Time
To Go:
Arrived

Flight Plot

Page will automatically refresh every two minutes.

Flight plan parsing failed; only flown route is shown


Map Options




Map Legend


Flown Route
Filed Route
Departure Airport
Arrival Airport
Navaid (VOR, NDB)
Fix

Horizontal Profiles

Position Reports

Time Latitude Longitude Heading Altitude Ground
Speed
03-Nov-20 17:11 47.462515 -122.300708 359 442ft 0kts
03-Nov-20 17:12 47.462515 -122.300708 359 442ft 0kts
03-Nov-20 17:13 47.462515 -122.300708 359 442ft 0kts
03-Nov-20 17:14 47.462515 -122.300708 359 442ft 0kts
03-Nov-20 17:15 47.462515 -122.300708 359 442ft 0kts
03-Nov-20 17:16 47.462515 -122.300708 359 442ft 0kts
03-Nov-20 17:17 47.462515 -122.300708 359 442ft 0kts
03-Nov-20 17:18 47.462515 -122.300708 359 442ft 0kts
03-Nov-20 17:19 47.462515 -122.300708 359 442ft 0kts
03-Nov-20 17:20 47.462515 -122.300708 359 442ft 0kts
03-Nov-20 17:21 47.462515 -122.300708 359 442ft 0kts
03-Nov-20 17:23 47.462515 -122.300708 359 442ft 0kts
03-Nov-20 17:24 47.462515 -122.300708 359 442ft 0kts
03-Nov-20 17:25 47.462515 -122.300708 359 442ft 0kts
03-Nov-20 17:26 47.462515 -122.300708 359 442ft 0kts
03-Nov-20 17:27 47.462515 -122.300708 359 442ft 0kts
03-Nov-20 17:28 47.462515 -122.300708 359 442ft 0kts
03-Nov-20 17:29 47.462515 -122.300708 359 442ft 0kts
03-Nov-20 17:30 47.462515 -122.300708 359 442ft 0kts
03-Nov-20 17:31 47.462515 -122.300708 359 442ft 0kts
03-Nov-20 17:32 47.462515 -122.300708 359 442ft 0kts
03-Nov-20 17:33 47.462515 -122.300708 359 442ft 0kts
03-Nov-20 17:34 47.462515 -122.300708 359 442ft 0kts
03-Nov-20 17:35 47.462515 -122.300708 359 442ft 0kts
03-Nov-20 17:36 47.462515 -122.300708 359 442ft 0kts
03-Nov-20 17:36 47.462515 -122.300708 359 442ft 0kts
03-Nov-20 17:38 47.462515 -122.300708 359 442ft 0kts
03-Nov-20 17:38 47.462515 -122.300708 359 442ft 0kts
03-Nov-20 17:40 47.462515 -122.300708 359 442ft 0kts
03-Nov-20 17:41 47.462515 -122.300708 359 442ft 0kts
03-Nov-20 17:41 47.462515 -122.300708 359 442ft 0kts
03-Nov-20 17:43 47.462515 -122.300708 359 442ft 0kts
03-Nov-20 17:43 47.462515 -122.300708 359 442ft 0kts
03-Nov-20 17:45 47.462515 -122.300708 359 442ft 0kts
03-Nov-20 17:45 47.462515 -122.300708 359 442ft 0kts
03-Nov-20 17:46 47.462515 -122.300708 359 442ft 0kts
03-Nov-20 17:47 47.462515 -122.300708 359 442ft 0kts
03-Nov-20 17:48 47.462515 -122.300708 359 442ft 0kts
03-Nov-20 17:49 47.462515 -122.300708 359 442ft 0kts
03-Nov-20 17:50 47.462016 -122.300540 319 444ft 2kts
03-Nov-20 17:51 47.461814 -122.300028 272 445ft 3kts
03-Nov-20 17:52 47.461815 -122.301632 270 445ft 0kts
03-Nov-20 17:53 47.461815 -122.301632 270 445ft 0kts
03-Nov-20 17:54 47.461815 -122.301632 270 445ft 0kts
03-Nov-20 17:55 47.461814 -122.302249 269 445ft 5kts
03-Nov-20 17:56 47.463558 -122.305728 333 425ft 12kts
03-Nov-20 17:57 47.463747 -122.306202 272 421ft 0kts
03-Nov-20 17:58 47.463742 -122.306857 261 417ft 9kts
03-Nov-20 17:59 47.452196 -122.307888 176 424ft 147kts
03-Nov-20 18:00 47.404644 -122.306251 180 2787ft 188kts
03-Nov-20 18:01 47.339667 -122.305106 183 5339ft 254kts
03-Nov-20 18:02 47.266848 -122.308158 185 9382ft 269kts
03-Nov-20 18:03 47.193934 -122.279797 135 12198ft 348kts
03-Nov-20 18:04 47.134076 -122.166424 162 15816ft 346kts
03-Nov-20 18:05 47.047516 -122.124439 180 18948ft 352kts
03-Nov-20 18:06 46.947605 -122.095454 174 20301ft 424kts
03-Nov-20 18:07 46.828977 -122.056676 175 22673ft 443kts
03-Nov-20 18:08 46.707784 -122.016852 175 23777ft 453kts
03-Nov-20 18:09 46.583511 -121.983661 194 24907ft 439kts
03-Nov-20 18:10 46.482016 -122.059382 207 25672ft 426kts
03-Nov-20 18:11 46.367957 -122.116748 201 26441ft 437kts
03-Nov-20 18:12 46.239932 -122.096049 178 27241ft 468kts
03-Nov-20 18:13 46.108977 -122.064079 178 28151ft 476kts
03-Nov-20 18:14 45.976595 -122.032113 179 29314ft 481kts
03-Nov-20 18:15 45.845322 -122.000583 179 31483ft 479kts
03-Nov-20 18:16 45.713229 -121.969038 180 34300ft 479kts
03-Nov-20 18:17 45.580102 -121.937378 179 35080ft 486kts
03-Nov-20 18:18 45.445458 -121.905466 179 35092ft 487kts
03-Nov-20 18:19 45.310376 -121.873719 179 35089ft 488kts
03-Nov-20 18:20 45.174484 -121.842045 179 35094ft 490kts
03-Nov-20 18:21 45.037642 -121.810389 178 35116ft 492kts
03-Nov-20 18:22 44.900749 -121.778943 178 35151ft 494kts
03-Nov-20 18:23 44.764316 -121.747774 178 35148ft 496kts
03-Nov-20 18:24 44.626695 -121.716491 177 35148ft 496kts
03-Nov-20 18:25 44.489045 -121.685364 177 35150ft 497kts
03-Nov-20 18:26 44.351253 -121.654358 177 35181ft 497kts
03-Nov-20 18:27 44.214891 -121.623525 177 35197ft 497kts
03-Nov-20 18:28 44.078043 -121.592179 176 35199ft 499kts
03-Nov-20 18:29 43.939321 -121.560359 176 35199ft 499kts
03-Nov-20 18:30 43.809440 -121.530600 176 35196ft 500kts
03-Nov-20 18:31 43.671804 -121.499160 176 35213ft 500kts
03-Nov-20 18:32 43.534421 -121.467894 176 35215ft 501kts
03-Nov-20 18:33 43.397074 -121.436767 175 35216ft 502kts
03-Nov-20 18:34 43.258787 -121.405571 175 35231ft 502kts
03-Nov-20 18:35 43.120975 -121.374618 175 35206ft 502kts
03-Nov-20 18:36 42.981170 -121.343343 175 35195ft 503kts
03-Nov-20 18:37 42.842708 -121.312469 175 35190ft 503kts
03-Nov-20 18:38 42.703293 -121.281639 175 35201ft 503kts
03-Nov-20 18:39 42.563512 -121.250843 175 35193ft 504kts
03-Nov-20 18:40 42.423294 -121.220092 175 35199ft 504kts
03-Nov-20 18:41 42.283333 -121.189553 174 35201ft 505kts
03-Nov-20 18:42 42.143630 -121.159208 174 35205ft 504kts
03-Nov-20 18:43 42.003346 -121.128880 174 35211ft 504kts
03-Nov-20 18:44 41.866498 -121.099433 174 35222ft 505kts
03-Nov-20 18:45 41.726570 -121.069443 173 35212ft 505kts
03-Nov-20 18:46 41.585925 -121.039440 173 35215ft 505kts
03-Nov-20 18:47 41.445609 -121.009641 173 35217ft 505kts
03-Nov-20 18:48 41.304812 -120.979870 173 35223ft 504kts
03-Nov-20 18:49 41.164755 -120.950389 173 35231ft 505kts
03-Nov-20 18:50 41.024639 -120.921022 173 35232ft 505kts
03-Nov-20 18:51 40.886440 -120.906844 180 35234ft 501kts
03-Nov-20 18:52 40.748259 -120.896901 179 35230ft 503kts
03-Nov-20 18:53 40.607422 -120.886009 178 35246ft 502kts
03-Nov-20 18:54 40.466888 -120.875010 178 35247ft 502kts
03-Nov-20 18:55 40.325780 -120.863931 178 35248ft 502kts
03-Nov-20 18:56 40.184657 -120.852857 178 35269ft 502kts
03-Nov-20 18:57 40.044666 -120.841895 178 35278ft 502kts
03-Nov-20 18:58 39.904528 -120.830952 178 35279ft 500kts
03-Nov-20 18:59 39.766760 -120.820221 178 35272ft 500kts
03-Nov-20 19:00 39.626847 -120.809360 178 35285ft 500kts
03-Nov-20 19:01 39.486974 -120.798544 178 35329ft 499kts
03-Nov-20 19:02 39.347236 -120.787781 178 35330ft 499kts
03-Nov-20 19:03 39.207360 -120.777052 178 35331ft 498kts
03-Nov-20 19:04 39.067587 -120.766375 178 35332ft 497kts
03-Nov-20 19:05 38.928222 -120.755773 178 35270ft 495kts
03-Nov-20 19:06 38.794713 -120.745657 178 35218ft 494kts
03-Nov-20 19:07 38.659193 -120.735429 178 35219ft 493kts
03-Nov-20 19:08 38.522788 -120.725176 178 35220ft 492kts
03-Nov-20 19:09 38.385908 -120.714934 177 35220ft 497kts
03-Nov-20 19:10 38.246420 -120.704534 177 35198ft 499kts
03-Nov-20 19:11 38.108069 -120.694254 177 35195ft 499kts
03-Nov-20 19:12 37.967676 -120.683865 176 35194ft 495kts
03-Nov-20 19:13 37.829644 -120.673690 176 35157ft 497kts
03-Nov-20 19:14 37.690846 -120.663498 176 35117ft 495kts
03-Nov-20 19:15 37.551640 -120.653314 176 35118ft 496kts
03-Nov-20 19:16 37.412248 -120.643156 176 35119ft 494kts
03-Nov-20 19:17 37.275246 -120.617700 166 35120ft 494kts
03-Nov-20 19:18 37.140936 -120.575569 164 35128ft 492kts
03-Nov-20 19:20 37.007108 -120.532551 164 35130ft 491kts
03-Nov-20 19:21 36.874613 -120.489888 164 35117ft 489kts
03-Nov-20 19:22 36.741915 -120.447215 164 35117ft 487kts
03-Nov-20 19:23 36.608628 -120.404454 164 35118ft 485kts
03-Nov-20 19:24 36.477194 -120.362415 164 35118ft 485kts
03-Nov-20 19:25 36.348495 -120.321368 165 35119ft 484kts
03-Nov-20 19:26 36.217545 -120.279755 165 35119ft 483kts
03-Nov-20 19:27 36.086487 -120.238274 165 35119ft 481kts
03-Nov-20 19:28 35.955735 -120.197045 165 35123ft 481kts
03-Nov-20 19:29 35.826461 -120.156426 165 35126ft 481kts
03-Nov-20 19:30 35.693958 -120.126185 165 35112ft 479kts
03-Nov-20 19:31 35.577213 -120.043706 147 35123ft 479kts
03-Nov-20 19:32 35.469025 -119.961193 147 34268ft 459kts
03-Nov-20 19:33 35.357341 -119.876669 147 33270ft 469kts
03-Nov-20 19:34 35.247000 -119.788673 141 32262ft 470kts
03-Nov-20 19:35 35.142716 -119.689857 142 31259ft 475kts
03-Nov-20 19:36 35.037868 -119.591442 142 30265ft 476kts
03-Nov-20 19:36 34.950832 -119.510074 142 29023ft 475kts
03-Nov-20 19:38 34.826722 -119.397061 143 25689ft 463kts
03-Nov-20 19:38 34.744467 -119.323414 144 24890ft 417kts
03-Nov-20 19:40 34.635222 -119.227834 145 22371ft 413kts
03-Nov-20 19:40 34.557727 -119.160993 145 20912ft 404kts
03-Nov-20 19:41 34.470406 -119.083770 144 18826ft 380kts
03-Nov-20 19:42 34.388511 -119.012117 144 16811ft 373kts
03-Nov-20 19:43 34.305285 -118.938891 143 15082ft 363kts
03-Nov-20 19:44 34.224148 -118.865004 143 13256ft 356kts
03-Nov-20 19:45 34.148049 -118.793760 138 12174ft 320kts
03-Nov-20 19:46 34.084314 -118.724300 137 10417ft 298kts
03-Nov-20 19:47 34.031310 -118.649093 102 9124ft 287kts
03-Nov-20 19:48 34.020362 -118.554746 95 8150ft 271kts
03-Nov-20 19:49 34.011608 -118.465233 94 7203ft 257kts
03-Nov-20 19:50 34.018426 -118.381645 81 6231ft 248kts
03-Nov-20 19:51 34.023635 -118.332263 82 6195ft 236kts
03-Nov-20 19:52 34.026209 -118.307911 82 6077ft 235kts
03-Nov-20 19:53 34.026251 -118.307520 82 6069ft 235kts
03-Nov-20 19:54 34.029253 -118.279180 81 5611ft 234kts
03-Nov-20 19:55 34.037606 -118.201570 81 4409ft 228kts
03-Nov-20 19:56 34.045930 -118.125901 81 3226ft 224kts
03-Nov-20 19:57 34.049288 -118.046588 115 2995ft 250kts
03-Nov-20 19:58 33.997006 -118.044502 229 3015ft 225kts
03-Nov-20 19:59 33.963536 -118.108267 262 3008ft 222kts
03-Nov-20 20:00 33.957520 -118.183730 263 2992ft 223kts
03-Nov-20 20:01 33.950244 -118.256269 263 2212ft 192kts
03-Nov-20 20:02 33.944485 -118.312051 260 1268ft 137kts
03-Nov-20 20:03 33.939997 -118.357746 263 504ft 131kts
03-Nov-20 20:04 33.935591 -118.398623 263 120ft 49kts
03-Nov-20 20:05 33.934812 -118.401734 230 124ft 0kts
03-Nov-20 20:06 33.934333 -118.401870 151 124ft 7kts
03-Nov-20 20:07 33.934770 -118.396125 82 116ft 24kts
03-Nov-20 20:08 33.934400 -118.388474 170 108ft 12kts
03-Nov-20 20:09 33.933951 -118.388407 174 108ft 0kts

Navigation Log

Ident Type
Flight plan parsing failed, navigation log unavailable